Sebastian, FL

6:07 PM EDT on April 19, 2015 (GMT -0400)
OZWORLD - SEBASTIAN HIGHLANDS | | Change Station
CLOSE
Current Station
Personal Weather Station
Location: Sebastian, FL
Elevation: 21 ft
Nearby Weather Stations

Elev 21 ft 27.80 °N, 80.48 °W | Updated 11 seconds ago

Partly Cloudy
Partly Cloudy
87.0 °F
Feels Like 96 °F
N
0.0
Wind Variable Wind from SSE
Gusts 7.0 mph

Today
High -- | Low -- °F
--% Chance of Precip.
Yesterday
High -- | Low -- °F
Precip. -- in
6:53 AM 7:49 PM
New Moon, 2% visible
Pressure 29.85 in
Visibility 10.0 miles
Clouds Few 6000 ft
Heat Index 96 °F
Dew Point 74 °F
Humidity 66%
Rainfall 0.00 in
Snow Depth Not available.
UV 2 out of 12
Pollen 8.60 out of 12
Air Quality Not available.
Flu Activity Local Activity
METAR KVRB 192153Z AUTO 13011KT 10SM FEW060 30/22 A2985 RMK AO2 SLP108 T03000222

More Conditions Fewer Conditions

Pressure 29.85 in
Visibility 10.0 miles
Clouds Few 6000 ft
Heat Index 96 °F
Dew Point 74 °F
Humidity 66%
Rainfall 0.00 in
Snow Depth Not available.
UV 2 out of 12
Pollen 8.60 out of 12
Air Quality Not available.
Flu Activity Local Activity
METAR KVRB 192153Z AUTO 13011KT 10SM FEW060 30/22 A2985 RMK AO2 SLP108 T03000222

More Conditions Fewer Conditions

Nowcast | as of 6:00 PM EDT on April 19, 2015

strong to severe storm threat moving east toward coastal Volusia and Brevard counties... Through the early evening hours...several clusters of strong to severe storms will move quickly east-northeast at 30 to 35 mph across Volusia...central and eastern Seminole and Orange...northern Osceola...and northern and central Osceola and Brevard counties. Storms have a history of producing strong...possibly damaging wind gusts in excess of 50 mph...small hail...frequent lightning...and torrential rainfall. Keep abreast of the latest weather updates and be alert for storms approaching your location rapidly form the west and southwest. Additional details...including graphics are available online at: http://www.Srh.NOAA.Gov/mlb/blog.Php

×

10-Day Weather Forecast

Almanac

Astronomy

Apr. 19, 2015 Rise Set
Actual Time
Civil Twilight
Nautical Twilight
Astronomical Twilight
Moon
Length of Visible Light
Length of Day
Tomorrow will be .
, % of the Moon is Illuminated

Today's Extremes

State Highs State Lows

Community

WunderPhotos

Upload Photos

1,814,999 photos uploaded!

WunderBlogs® & News

Nearby

Air Quality

  Air Quality AQ Index Pollutant
Not available.

Snow Depth

Station Depth Elevation

Earthquake Activity

City Distance Mag. Time & Date
Minimum magnitude displayed is 2.5.

Coastal Water Temperatures

Place Temperature

Stations

Nearby Weather Stations

Station Location Temp. Windchill Dew Point Humidity Wind Precip. Elev Updated Type